Date,TemperatureHighF,TemperatureAvgF,TemperatureLowF,DewpointHighF,DewpointAvgF,DewpointLowF,HumidityHigh,HumidityAvg,HumidityLow,PressureMaxIn,PressureMinIn,WindSpeedMaxMPH,WindSpeedAvgMPH,GustSpeedMaxMPH,PrecipitationSumIn
2013-7-1,101.8,83.8,64.9,58.2,51.7,44.2,54,35,20,29.74,29.68,21,4,21,0.00
2013-7-2,104.7,86.8,71.6,63.6,54.8,46.3,49,35,25,29.80,29.71,20,6,20,0.00
2013-7-3,102.4,82.6,65.8,62.9,54.8,46.7,57,40,26,29.80,29.64,21,5,21,0.00
2013-7-4,102.7,86.8,73.2,61.1,55.0,47.5,50,35,24,29.67,29.56,25,7,25,0.00
2013-7-5,80.8,69.5,59.5,54.0,48.0,42.1,61,47,35,29.67,29.60,30,13,30,0.00
2013-7-6,85.1,69.0,55.0,54.4,48.8,43.4,68,50,34,29.68,29.61,20,7,20,0.00
2013-7-7,89.4,70.0,52.7,53.3,46.6,38.3,76,46,24,29.74,29.65,18,5,18,0.00
2013-7-8,92.1,72.5,54.8,53.8,47.1,39.4,66,43,24,29.85,29.73,16,5,16,0.00
2013-7-9,101.1,79.9,58.4,56.1,47.3,39.2,59,35,18,29.90,29.79,17,3,17,0.00
2013-7-10,93.4,75.6,60.2,52.9,44.9,37.4,57,35,20,29.86,29.76,22,6,22,0.00
2013-7-11,84.5,68.6,56.8,53.3,47.1,38.9,66,48,32,29.81,29.75,20,8,21,0.00
2013-7-12,86.5,69.1,52.0,52.7,45.1,35.9,75,45,26,29.81,29.75,21,6,22,0.00
2013-7-13,91.7,73.1,53.0,49.9,42.1,34.1,60,35,20,29.84,29.76,19,4,19,0.00
2013-7-14,89.6,71.5,55.4,52.1,42.9,32.9,65,38,20,29.87,29.76,21,6,21,0.00
2013-7-15,80.8,65.6,55.9,52.7,46.9,38.7,65,52,37,29.79,29.71,21,9,21,0.00
2013-7-16,76.1,65.0,56.8,52.4,49.0,45.3,69,57,43,29.91,29.73,26,12,26,0.00
2013-7-17,84.5,68.9,59.0,55.0,50.3,44.8,72,53,34,29.97,29.89,20,7,20,0.00
2013-7-18,91.6,71.6,53.9,51.5,45.4,39.6,70,44,18,29.93,29.81,21,5,21,0.00
2013-7-19,94.4,73.1,55.0,56.9,47.6,37.6,70,42,24,29.82,29.68,50,5,50,0.00
2013-7-20,94.1,73.4,56.5,58.8,50.1,41.5,68,46,28,29.73,29.60,17,6,18,0.00
2013-7-21,92.8,73.9,56.6,57.5,49.8,40.9,70,45,26,29.74,29.63,20,7,20,0.00
2013-7-22,87.8,72.7,59.7,56.1,50.9,46.1,66,48,29,29.83,29.73,17,6,17,0.00
2013-7-23,89.8,76.6,66.5,56.3,50.4,43.2,57,41,26,29.87,29.81,20,7,20,0.00
2013-7-24,95.2,77.4,61.1,53.0,47.4,41.9,61,38,20,29.86,29.77,21,7,21,0.00
2013-7-25,90.5,75.9,62.6,55.4,47.6,40.5,54,38,27,29.90,29.79,25,7,25,0.00
2013-7-26,91.6,73.4,58.1,53.9,48.7,42.2,72,44,25,29.96,29.87,23,8,23,0.00
2013-7-27,89.2,72.1,58.4,57.7,50.1,44.1,74,48,31,29.90,29.73,19,7,31,0.00
2013-7-28,86.3,69.6,57.4,56.1,50.0,44.0,68,51,35,29.75,29.67,50,8,50,0.00
2013-7-29,82.9,66.4,53.6,54.2,48.2,42.6,70,53,35,29.87,29.70,50,8,50,0.00
2013-7-30,87.8,68.8,55.4,55.3,49.0,42.7,70,52,31,29.97,29.86,50,6,50,0.00
2013-7-31,84.7,68.6,56.8,52.6,48.0,43.9,69,50,28,29.95,29.88,25,10,25,0.00